sensor_id;sensor_type;location;lat;lon;timestamp;P1;durP1;ratioP1;P2;durP2;ratioP2
63943;SDS011;50121;51.218;7.664;2022-08-16T00:02:05;8.07;;;7.47;;
63943;SDS011;50121;51.218;7.664;2022-08-16T00:04:33;8.00;;;7.40;;
63943;SDS011;50121;51.218;7.664;2022-08-16T00:07:01;8.00;;;7.30;;
63943;SDS011;50121;51.218;7.664;2022-08-16T00:09:28;7.95;;;7.30;;
63943;SDS011;50121;51.218;7.664;2022-08-16T00:11:56;8.43;;;7.50;;
63943;SDS011;50121;51.218;7.664;2022-08-16T00:14:25;7.90;;;7.30;;
63943;SDS011;50121;51.218;7.664;2022-08-16T00:16:54;8.23;;;7.57;;
63943;SDS011;50121;51.218;7.664;2022-08-16T00:19:22;9.20;;;8.30;;
63943;SDS011;50121;51.218;7.664;2022-08-16T00:21:51;8.40;;;7.70;;
63943;SDS011;50121;51.218;7.664;2022-08-16T00:24:20;8.23;;;7.57;;
63943;SDS011;50121;51.218;7.664;2022-08-16T00:26:48;8.23;;;7.60;;
63943;SDS011;50121;51.218;7.664;2022-08-16T00:29:15;8.77;;;7.32;;
63943;SDS011;50121;51.218;7.664;2022-08-16T00:31:44;8.52;;;7.72;;
63943;SDS011;50121;51.218;7.664;2022-08-16T00:34:12;8.32;;;7.57;;
63943;SDS011;50121;51.218;7.664;2022-08-16T00:36:40;7.65;;;7.10;;
63943;SDS011;50121;51.218;7.664;2022-08-16T00:39:07;8.43;;;7.82;;
63943;SDS011;50121;51.218;7.664;2022-08-16T00:41:35;7.78;;;7.05;;
63943;SDS011;50121;51.218;7.664;2022-08-16T00:44:03;8.50;;;7.65;;
63943;SDS011;50121;51.218;7.664;2022-08-16T00:46:38;8.30;;;7.60;;
63943;SDS011;50121;51.218;7.664;2022-08-16T00:49:10;7.57;;;7.07;;
63943;SDS011;50121;51.218;7.664;2022-08-16T00:51:38;7.28;;;6.68;;
63943;SDS011;50121;51.218;7.664;2022-08-16T00:54:06;7.80;;;7.22;;
63943;SDS011;50121;51.218;7.664;2022-08-16T00:56:35;8.45;;;7.75;;
63943;SDS011;50121;51.218;7.664;2022-08-16T00:59:04;8.00;;;7.30;;
63943;SDS011;50121;51.218;7.664;2022-08-16T01:01:32;8.00;;;7.40;;
63943;SDS011;50121;51.218;7.664;2022-08-16T01:03:59;7.85;;;6.70;;
63943;SDS011;50121;51.218;7.664;2022-08-16T01:06:27;7.93;;;7.15;;
63943;SDS011;50121;51.218;7.664;2022-08-16T01:08:56;8.50;;;7.80;;
63943;SDS011;50121;51.218;7.664;2022-08-16T01:11:24;8.10;;;7.40;;
63943;SDS011;50121;51.218;7.664;2022-08-16T01:13:53;8.25;;;7.55;;
63943;SDS011;50121;51.218;7.664;2022-08-16T01:16:23;8.55;;;7.82;;
63943;SDS011;50121;51.218;7.664;2022-08-16T01:18:52;8.80;;;7.35;;
63943;SDS011;50121;51.218;7.664;2022-08-16T01:26:31;7.43;;;6.82;;
63943;SDS011;50121;51.218;7.664;2022-08-16T01:29:03;7.65;;;7.00;;
63943;SDS011;50121;51.218;7.664;2022-08-16T01:31:32;7.35;;;6.85;;
63943;SDS011;50121;51.218;7.664;2022-08-16T01:33:59;7.75;;;7.15;;
63943;SDS011;50121;51.218;7.664;2022-08-16T01:36:27;8.52;;;6.70;;
63943;SDS011;50121;51.218;7.664;2022-08-16T01:38:56;7.00;;;6.40;;
63943;SDS011;50121;51.218;7.664;2022-08-16T01:41:26;7.30;;;6.70;;
63943;SDS011;50121;51.218;7.664;2022-08-16T01:43:58;7.50;;;6.72;;
63943;SDS011;50121;51.218;7.664;2022-08-16T01:46:29;7.63;;;6.93;;
63943;SDS011;50121;51.218;7.664;2022-08-16T01:49:04;10.90;;;9.73;;
63943;SDS011;50121;51.218;7.664;2022-08-16T01:53:59;7.60;;;7.00;;
63943;SDS011;50121;51.218;7.664;2022-08-16T01:56:29;7.22;;;6.60;;
63943;SDS011;50121;51.218;7.664;2022-08-16T01:58:58;9.68;;;6.45;;
63943;SDS011;50121;51.218;7.664;2022-08-16T02:01:27;7.28;;;6.63;;
63943;SDS011;50121;51.218;7.664;2022-08-16T02:03:56;6.90;;;6.32;;
63943;SDS011;50121;51.218;7.664;2022-08-16T02:06:24;7.85;;;6.20;;
63943;SDS011;50121;51.218;7.664;2022-08-16T02:08:53;7.30;;;6.70;;
63943;SDS011;50121;51.218;7.664;2022-08-16T02:11:22;7.55;;;6.95;;
63943;SDS011;50121;51.218;7.664;2022-08-16T02:13:50;9.82;;;6.70;;
63943;SDS011;50121;51.218;7.664;2022-08-16T02:16:18;7.18;;;6.57;;
63943;SDS011;50121;51.218;7.664;2022-08-16T02:18:46;6.70;;;6.20;;
63943;SDS011;50121;51.218;7.664;2022-08-16T02:21:14;7.32;;;6.63;;
63943;SDS011;50121;51.218;7.664;2022-08-16T02:23:42;7.05;;;6.55;;
63943;SDS011;50121;51.218;7.664;2022-08-16T02:26:10;7.07;;;6.38;;
63943;SDS011;50121;51.218;7.664;2022-08-16T02:28:37;6.90;;;6.30;;
63943;SDS011;50121;51.218;7.664;2022-08-16T02:31:06;6.95;;;6.32;;
63943;SDS011;50121;51.218;7.664;2022-08-16T02:33:34;7.10;;;6.40;;
63943;SDS011;50121;51.218;7.664;2022-08-16T02:36:03;6.97;;;6.28;;
63943;SDS011;50121;51.218;7.664;2022-08-16T02:38:32;7.63;;;6.93;;
63943;SDS011;50121;51.218;7.664;2022-08-16T02:41:00;8.52;;;6.70;;
63943;SDS011;50121;51.218;7.664;2022-08-16T02:43:30;7.35;;;6.75;;
63943;SDS011;50121;51.218;7.664;2022-08-16T02:46:02;7.15;;;6.65;;
63943;SDS011;50121;51.218;7.664;2022-08-16T02:48:29;8.00;;;7.30;;
63943;SDS011;50121;51.218;7.664;2022-08-16T02:51:00;7.13;;;6.45;;
63943;SDS011;50121;51.218;7.664;2022-08-16T02:53:28;6.85;;;6.18;;
63943;SDS011;50121;51.218;7.664;2022-08-16T02:55:57;6.65;;;5.97;;
63943;SDS011;50121;51.218;7.664;2022-08-16T02:58:24;6.57;;;5.97;;
63943;SDS011;50121;51.218;7.664;2022-08-16T03:00:53;9.18;;;7.25;;
63943;SDS011;50121;51.218;7.664;2022-08-16T03:03:20;7.10;;;6.50;;
63943;SDS011;50121;51.218;7.664;2022-08-16T03:05:48;7.03;;;6.53;;
63943;SDS011;50121;51.218;7.664;2022-08-16T03:08:17;7.57;;;6.90;;
63943;SDS011;50121;51.218;7.664;2022-08-16T03:10:45;8.13;;;7.53;;
63943;SDS011;50121;51.218;7.664;2022-08-16T03:13:16;10.35;;;7.80;;
63943;SDS011;50121;51.218;7.664;2022-08-16T03:15:44;8.20;;;7.40;;
63943;SDS011;50121;51.218;7.664;2022-08-16T03:18:12;7.47;;;6.80;;
63943;SDS011;50121;51.218;7.664;2022-08-16T03:20:39;6.55;;;5.78;;
63943;SDS011;50121;51.218;7.664;2022-08-16T03:23:08;7.38;;;6.00;;
63943;SDS011;50121;51.218;7.664;2022-08-16T03:25:36;6.85;;;6.10;;
63943;SDS011;50121;51.218;7.664;2022-08-16T03:28:04;7.32;;;6.40;;
63943;SDS011;50121;51.218;7.664;2022-08-16T03:30:33;24.67;;;20.02;;
63943;SDS011;50121;51.218;7.664;2022-08-16T03:33:03;17.25;;;15.40;;
63943;SDS011;50121;51.218;7.664;2022-08-16T03:35:37;9.73;;;8.73;;
63943;SDS011;50121;51.218;7.664;2022-08-16T03:38:15;6.93;;;6.43;;
63943;SDS011;50121;51.218;7.664;2022-08-16T03:40:47;6.75;;;6.10;;
63943;SDS011;50121;51.218;7.664;2022-08-16T03:43:16;6.75;;;6.25;;
63943;SDS011;50121;51.218;7.664;2022-08-16T03:45:45;6.85;;;6.25;;
63943;SDS011;50121;51.218;7.664;2022-08-16T03:48:13;7.00;;;6.10;;
63943;SDS011;50121;51.218;7.664;2022-08-16T03:50:42;7.25;;;5.60;;
63943;SDS011;50121;51.218;7.664;2022-08-16T03:53:10;8.90;;;6.00;;
63943;SDS011;50121;51.218;7.664;2022-08-16T03:55:37;6.60;;;5.90;;
63943;SDS011;50121;51.218;7.664;2022-08-16T03:58:06;6.55;;;6.05;;
63943;SDS011;50121;51.218;7.664;2022-08-16T04:00:33;6.82;;;6.32;;
63943;SDS011;50121;51.218;7.664;2022-08-16T04:03:05;6.90;;;6.20;;
63943;SDS011;50121;51.218;7.664;2022-08-16T04:05:37;7.13;;;6.53;;
63943;SDS011;50121;51.218;7.664;2022-08-16T04:08:05;6.75;;;6.25;;
63943;SDS011;50121;51.218;7.664;2022-08-16T04:10:33;7.55;;;6.85;;
63943;SDS011;50121;51.218;7.664;2022-08-16T04:13:02;6.80;;;6.28;;
63943;SDS011;50121;51.218;7.664;2022-08-16T04:15:31;6.60;;;6.05;;
63943;SDS011;50121;51.218;7.664;2022-08-16T04:18:14;7.00;;;6.25;;
63943;SDS011;50121;51.218;7.664;2022-08-16T04:20:43;7.05;;;6.45;;
63943;SDS011;50121;51.218;7.664;2022-08-16T04:23:11;7.65;;;6.40;;
63943;SDS011;50121;51.218;7.664;2022-08-16T04:25:41;8.25;;;7.50;;
63943;SDS011;50121;51.218;7.664;2022-08-16T04:28:09;11.68;;;10.00;;
63943;SDS011;50121;51.218;7.664;2022-08-16T04:30:36;7.28;;;6.60;;
63943;SDS011;50121;51.218;7.664;2022-08-16T04:33:05;7.80;;;6.30;;
63943;SDS011;50121;51.218;7.664;2022-08-16T04:35:35;7.63;;;6.93;;
63943;SDS011;50121;51.218;7.664;2022-08-16T04:38:03;8.75;;;6.95;;
63943;SDS011;50121;51.218;7.664;2022-08-16T04:40:38;7.20;;;6.50;;
63943;SDS011;50121;51.218;7.664;2022-08-16T04:43:06;7.05;;;6.30;;
63943;SDS011;50121;51.218;7.664;2022-08-16T04:45:34;6.80;;;6.20;;
63943;SDS011;50121;51.218;7.664;2022-08-16T04:48:09;7.38;;;6.68;;
63943;SDS011;50121;51.218;7.664;2022-08-16T04:50:45;10.02;;;9.10;;
63943;SDS011;50121;51.218;7.664;2022-08-16T04:53:17;7.68;;;7.00;;
63943;SDS011;50121;51.218;7.664;2022-08-16T04:55:47;6.85;;;6.15;;
63943;SDS011;50121;51.218;7.664;2022-08-16T04:58:15;12.35;;;11.10;;
63943;SDS011;50121;51.218;7.664;2022-08-16T05:00:44;7.82;;;6.78;;
63943;SDS011;50121;51.218;7.664;2022-08-16T05:03:16;6.97;;;6.47;;
63943;SDS011;50121;51.218;7.664;2022-08-16T05:05:46;7.90;;;6.30;;
63943;SDS011;50121;51.218;7.664;2022-08-16T05:08:24;6.70;;;5.90;;
63943;SDS011;50121;51.218;7.664;2022-08-16T05:10:57;6.63;;;6.10;;
63943;SDS011;50121;51.218;7.664;2022-08-16T05:13:26;6.50;;;6.00;;
63943;SDS011;50121;51.218;7.664;2022-08-16T05:15:56;10.15;;;6.60;;
63943;SDS011;50121;51.218;7.664;2022-08-16T05:18:25;7.70;;;6.95;;
63943;SDS011;50121;51.218;7.664;2022-08-16T05:20:56;7.22;;;6.57;;
63943;SDS011;50121;51.218;7.664;2022-08-16T05:23:24;6.63;;;6.13;;
63943;SDS011;50121;51.218;7.664;2022-08-16T05:25:52;6.50;;;5.90;;
63943;SDS011;50121;51.218;7.664;2022-08-16T05:28:20;6.55;;;6.05;;
63943;SDS011;50121;51.218;7.664;2022-08-16T05:30:52;8.02;;;7.25;;
63943;SDS011;50121;51.218;7.664;2022-08-16T05:33:23;8.38;;;6.50;;
63943;SDS011;50121;51.218;7.664;2022-08-16T05:35:52;7.57;;;6.90;;
63943;SDS011;50121;51.218;7.664;2022-08-16T05:38:40;7.95;;;6.75;;
63943;SDS011;50121;51.218;7.664;2022-08-16T05:41:11;9.75;;;8.77;;
63943;SDS011;50121;51.218;7.664;2022-08-16T05:43:41;8.30;;;7.35;;
63943;SDS011;50121;51.218;7.664;2022-08-16T05:46:10;7.13;;;6.47;;
63943;SDS011;50121;51.218;7.664;2022-08-16T05:48:40;7.90;;;6.72;;
63943;SDS011;50121;51.218;7.664;2022-08-16T05:51:11;6.70;;;6.15;;
63943;SDS011;50121;51.218;7.664;2022-08-16T05:53:39;6.45;;;5.80;;
63943;SDS011;50121;51.218;7.664;2022-08-16T05:56:12;8.00;;;6.18;;
63943;SDS011;50121;51.218;7.664;2022-08-16T05:58:43;7.20;;;6.50;;
63943;SDS011;50121;51.218;7.664;2022-08-16T06:01:13;9.23;;;8.52;;
63943;SDS011;50121;51.218;7.664;2022-08-16T06:03:45;7.40;;;6.75;;
63943;SDS011;50121;51.218;7.664;2022-08-16T06:06:25;8.40;;;7.70;;
63943;SDS011;50121;51.218;7.664;2022-08-16T06:08:53;7.32;;;6.65;;
63943;SDS011;50121;51.218;7.664;2022-08-16T06:11:20;7.55;;;6.95;;
63943;SDS011;50121;51.218;7.664;2022-08-16T06:13:53;8.07;;;7.37;;
63943;SDS011;50121;51.218;7.664;2022-08-16T06:16:32;9.70;;;8.82;;
63943;SDS011;50121;51.218;7.664;2022-08-16T06:19:00;7.78;;;7.07;;
63943;SDS011;50121;51.218;7.664;2022-08-16T06:21:27;6.70;;;6.03;;
63943;SDS011;50121;51.218;7.664;2022-08-16T06:24:00;7.30;;;6.60;;
63943;SDS011;50121;51.218;7.664;2022-08-16T06:26:31;7.47;;;6.80;;
63943;SDS011;50121;51.218;7.664;2022-08-16T06:28:59;6.80;;;6.20;;
63943;SDS011;50121;51.218;7.664;2022-08-16T06:31:33;8.32;;;7.47;;
63943;SDS011;50121;51.218;7.664;2022-08-16T06:34:01;7.07;;;6.47;;
63943;SDS011;50121;51.218;7.664;2022-08-16T06:36:33;7.15;;;6.55;;
63943;SDS011;50121;51.218;7.664;2022-08-16T06:39:21;7.57;;;6.80;;
63943;SDS011;50121;51.218;7.664;2022-08-16T06:42:07;7.25;;;6.63;;
63943;SDS011;50121;51.218;7.664;2022-08-16T06:45:14;7.20;;;6.50;;
63943;SDS011;50121;51.218;7.664;2022-08-16T06:47:48;7.20;;;6.50;;
63943;SDS011;50121;51.218;7.664;2022-08-16T06:50:16;7.95;;;6.70;;
63943;SDS011;50121;51.218;7.664;2022-08-16T06:52:47;8.10;;;7.03;;
63943;SDS011;50121;51.218;7.664;2022-08-16T06:55:15;7.93;;;7.22;;
63943;SDS011;50121;51.218;7.664;2022-08-16T06:57:49;7.40;;;6.82;;
63943;SDS011;50121;51.218;7.664;2022-08-16T07:00:24;8.10;;;7.47;;
63943;SDS011;50121;51.218;7.664;2022-08-16T07:03:06;8.05;;;7.32;;
63943;SDS011;50121;51.218;7.664;2022-08-16T07:05:34;7.95;;;7.35;;
63943;SDS011;50121;51.218;7.664;2022-08-16T07:08:19;7.78;;;6.95;;
63943;SDS011;50121;51.218;7.664;2022-08-16T07:10:47;8.25;;;7.60;;
63943;SDS011;50121;51.218;7.664;2022-08-16T07:13:16;8.02;;;7.43;;
63943;SDS011;50121;51.218;7.664;2022-08-16T07:15:57;7.32;;;6.68;;
63943;SDS011;50121;51.218;7.664;2022-08-16T07:18:27;7.57;;;6.80;;
63943;SDS011;50121;51.218;7.664;2022-08-16T07:20:55;8.23;;;7.53;;
63943;SDS011;50121;51.218;7.664;2022-08-16T07:23:27;9.15;;;7.13;;
63943;SDS011;50121;51.218;7.664;2022-08-16T07:25:57;7.40;;;6.70;;
63943;SDS011;50121;51.218;7.664;2022-08-16T07:28:25;7.47;;;6.88;;
63943;SDS011;50121;51.218;7.664;2022-08-16T07:30:53;7.50;;;6.90;;
63943;SDS011;50121;51.218;7.664;2022-08-16T07:33:29;7.55;;;6.80;;
63943;SDS011;50121;51.218;7.664;2022-08-16T07:35:57;7.70;;;7.10;;
63943;SDS011;50121;51.218;7.664;2022-08-16T07:38:26;7.65;;;6.95;;
63943;SDS011;50121;51.218;7.664;2022-08-16T07:40:55;6.93;;;6.32;;
63943;SDS011;50121;51.218;7.664;2022-08-16T07:43:25;7.18;;;6.57;;
63943;SDS011;50121;51.218;7.664;2022-08-16T07:45:54;7.00;;;6.30;;
63943;SDS011;50121;51.218;7.664;2022-08-16T07:48:22;7.85;;;6.57;;
63943;SDS011;50121;51.218;7.664;2022-08-16T07:50:53;8.00;;;7.30;;
63943;SDS011;50121;51.218;7.664;2022-08-16T07:53:25;7.15;;;6.47;;
63943;SDS011;50121;51.218;7.664;2022-08-16T07:55:53;7.90;;;7.30;;
63943;SDS011;50121;51.218;7.664;2022-08-16T07:58:26;8.48;;;7.57;;
63943;SDS011;50121;51.218;7.664;2022-08-16T08:00:55;8.10;;;7.30;;
63943;SDS011;50121;51.218;7.664;2022-08-16T08:03:23;7.03;;;6.43;;
63943;SDS011;50121;51.218;7.664;2022-08-16T08:05:52;7.68;;;6.82;;
63943;SDS011;50121;51.218;7.664;2022-08-16T08:08:20;8.40;;;7.35;;
63943;SDS011;50121;51.218;7.664;2022-08-16T08:10:48;9.60;;;6.65;;
63943;SDS011;50121;51.218;7.664;2022-08-16T08:13:16;7.78;;;7.05;;
63943;SDS011;50121;51.218;7.664;2022-08-16T08:15:44;7.07;;;6.38;;
63943;SDS011;50121;51.218;7.664;2022-08-16T08:18:13;7.95;;;7.15;;
63943;SDS011;50121;51.218;7.664;2022-08-16T08:20:40;8.75;;;7.95;;
63943;SDS011;50121;51.218;7.664;2022-08-16T08:23:11;9.13;;;8.00;;
63943;SDS011;50121;51.218;7.664;2022-08-16T08:25:43;8.50;;;7.73;;
63943;SDS011;50121;51.218;7.664;2022-08-16T08:28:14;10.13;;;8.00;;
63943;SDS011;50121;51.218;7.664;2022-08-16T08:30:42;8.52;;;7.85;;
63943;SDS011;50121;51.218;7.664;2022-08-16T08:33:10;7.88;;;7.28;;
63943;SDS011;50121;51.218;7.664;2022-08-16T08:35:40;8.68;;;6.93;;
63943;SDS011;50121;51.218;7.664;2022-08-16T08:38:09;9.15;;;6.80;;
63943;SDS011;50121;51.218;7.664;2022-08-16T08:40:41;7.40;;;6.90;;
63943;SDS011;50121;51.218;7.664;2022-08-16T08:43:11;12.02;;;7.70;;
63943;SDS011;50121;51.218;7.664;2022-08-16T08:45:44;8.48;;;7.68;;
63943;SDS011;50121;51.218;7.664;2022-08-16T08:48:11;6.85;;;6.25;;
63943;SDS011;50121;51.218;7.664;2022-08-16T08:50:40;8.73;;;6.47;;
63943;SDS011;50121;51.218;7.664;2022-08-16T08:53:08;9.40;;;6.53;;
63943;SDS011;50121;51.218;7.664;2022-08-16T08:55:37;7.85;;;6.30;;
63943;SDS011;50121;51.218;7.664;2022-08-16T08:58:05;6.20;;;5.68;;
63943;SDS011;50121;51.218;7.664;2022-08-16T09:03:18;7.75;;;7.07;;
63943;SDS011;50121;51.218;7.664;2022-08-16T09:05:46;7.75;;;7.03;;
63943;SDS011;50121;51.218;7.664;2022-08-16T09:08:18;7.50;;;6.80;;
63943;SDS011;50121;51.218;7.664;2022-08-16T09:10:52;7.57;;;6.53;;
63943;SDS011;50121;51.218;7.664;2022-08-16T09:13:23;7.00;;;6.40;;
63943;SDS011;50121;51.218;7.664;2022-08-16T09:15:52;8.13;;;7.50;;
63943;SDS011;50121;51.218;7.664;2022-08-16T09:18:21;8.57;;;7.78;;
63943;SDS011;50121;51.218;7.664;2022-08-16T09:20:51;9.50;;;8.65;;
63943;SDS011;50121;51.218;7.664;2022-08-16T09:23:19;9.63;;;8.68;;
63943;SDS011;50121;51.218;7.664;2022-08-16T09:25:47;10.13;;;9.13;;
63943;SDS011;50121;51.218;7.664;2022-08-16T09:28:15;10.80;;;9.73;;
63943;SDS011;50121;51.218;7.664;2022-08-16T09:30:47;9.85;;;8.95;;
63943;SDS011;50121;51.218;7.664;2022-08-16T09:33:16;9.85;;;8.23;;
63943;SDS011;50121;51.218;7.664;2022-08-16T09:35:44;10.35;;;9.40;;
63943;SDS011;50121;51.218;7.664;2022-08-16T09:38:12;8.82;;;8.00;;
63943;SDS011;50121;51.218;7.664;2022-08-16T09:40:40;8.73;;;7.93;;
63943;SDS011;50121;51.218;7.664;2022-08-16T09:43:09;9.48;;;8.57;;
63943;SDS011;50121;51.218;7.664;2022-08-16T09:45:42;9.07;;;8.38;;
63943;SDS011;50121;51.218;7.664;2022-08-16T09:48:10;9.45;;;8.48;;
63943;SDS011;50121;51.218;7.664;2022-08-16T09:50:39;9.07;;;8.18;;
63943;SDS011;50121;51.218;7.664;2022-08-16T09:53:09;10.27;;;9.35;;
63943;SDS011;50121;51.218;7.664;2022-08-16T09:55:37;12.07;;;9.43;;
63943;SDS011;50121;51.218;7.664;2022-08-16T09:58:04;17.48;;;10.60;;
63943;SDS011;50121;51.218;7.664;2022-08-16T10:00:32;9.25;;;8.45;;
63943;SDS011;50121;51.218;7.664;2022-08-16T10:03:00;9.93;;;8.98;;
63943;SDS011;50121;51.218;7.664;2022-08-16T10:05:28;9.88;;;8.68;;
63943;SDS011;50121;51.218;7.664;2022-08-16T10:07:55;8.48;;;7.68;;
63943;SDS011;50121;51.218;7.664;2022-08-16T10:10:23;9.35;;;8.50;;
63943;SDS011;50121;51.218;7.664;2022-08-16T10:12:50;9.68;;;8.77;;
63943;SDS011;50121;51.218;7.664;2022-08-16T10:15:38;9.73;;;8.80;;
63943;SDS011;50121;51.218;7.664;2022-08-16T10:18:06;8.40;;;7.70;;
63943;SDS011;50121;51.218;7.664;2022-08-16T10:20:36;8.55;;;7.85;;
63943;SDS011;50121;51.218;7.664;2022-08-16T10:23:05;9.45;;;8.35;;
63943;SDS011;50121;51.218;7.664;2022-08-16T10:25:35;10.98;;;8.70;;
63943;SDS011;50121;51.218;7.664;2022-08-16T10:28:05;8.70;;;7.90;;
63943;SDS011;50121;51.218;7.664;2022-08-16T10:30:49;10.38;;;9.35;;
63943;SDS011;50121;51.218;7.664;2022-08-16T10:33:17;10.13;;;9.23;;
63943;SDS011;50121;51.218;7.664;2022-08-16T10:35:45;10.18;;;9.35;;
63943;SDS011;50121;51.218;7.664;2022-08-16T10:38:12;9.50;;;8.40;;
63943;SDS011;50121;51.218;7.664;2022-08-16T10:40:42;8.52;;;7.75;;
63943;SDS011;50121;51.218;7.664;2022-08-16T10:43:10;9.75;;;8.75;;
63943;SDS011;50121;51.218;7.664;2022-08-16T10:45:38;10.98;;;9.10;;
63943;SDS011;50121;51.218;7.664;2022-08-16T10:48:06;8.65;;;7.70;;
63943;SDS011;50121;51.218;7.664;2022-08-16T10:50:36;9.85;;;8.98;;
63943;SDS011;50121;51.218;7.664;2022-08-16T10:53:03;8.73;;;8.02;;
63943;SDS011;50121;51.218;7.664;2022-08-16T10:55:33;9.40;;;8.80;;
63943;SDS011;50121;51.218;7.664;2022-08-16T10:58:03;9.00;;;8.02;;
63943;SDS011;50121;51.218;7.664;2022-08-16T11:00:41;8.00;;;7.20;;
63943;SDS011;50121;51.218;7.664;2022-08-16T11:03:09;8.57;;;7.68;;
63943;SDS011;50121;51.218;7.664;2022-08-16T11:05:56;8.02;;;7.22;;
63943;SDS011;50121;51.218;7.664;2022-08-16T11:08:25;8.40;;;7.60;;
63943;SDS011;50121;51.218;7.664;2022-08-16T11:10:52;8.68;;;7.75;;
63943;SDS011;50121;51.218;7.664;2022-08-16T11:13:23;8.38;;;7.63;;
63943;SDS011;50121;51.218;7.664;2022-08-16T11:16:11;10.00;;;9.10;;
63943;SDS011;50121;51.218;7.664;2022-08-16T11:18:59;9.60;;;8.73;;
63943;SDS011;50121;51.218;7.664;2022-08-16T11:21:26;8.63;;;7.80;;
63943;SDS011;50121;51.218;7.664;2022-08-16T11:23:55;8.52;;;7.60;;
63943;SDS011;50121;51.218;7.664;2022-08-16T11:26:24;9.23;;;8.38;;
63943;SDS011;50121;51.218;7.664;2022-08-16T11:28:53;9.02;;;7.90;;
63943;SDS011;50121;51.218;7.664;2022-08-16T11:31:39;9.63;;;8.18;;
63943;SDS011;50121;51.218;7.664;2022-08-16T11:34:06;12.93;;;11.93;;
63943;SDS011;50121;51.218;7.664;2022-08-16T11:36:34;9.82;;;8.55;;
63943;SDS011;50121;51.218;7.664;2022-08-16T11:39:02;9.10;;;7.60;;
63943;SDS011;50121;51.218;7.664;2022-08-16T11:41:31;8.88;;;7.93;;
63943;SDS011;50121;51.218;7.664;2022-08-16T11:44:01;10.85;;;9.85;;
63943;SDS011;50121;51.218;7.664;2022-08-16T11:46:29;9.85;;;8.07;;
63943;SDS011;50121;51.218;7.664;2022-08-16T11:48:56;11.60;;;10.60;;
63943;SDS011;50121;51.218;7.664;2022-08-16T11:51:24;11.13;;;10.23;;
63943;SDS011;50121;51.218;7.664;2022-08-16T11:53:52;8.73;;;8.00;;
63943;SDS011;50121;51.218;7.664;2022-08-16T11:56:20;10.13;;;7.80;;
63943;SDS011;50121;51.218;7.664;2022-08-16T11:58:48;11.77;;;7.88;;
63943;SDS011;50121;51.218;7.664;2022-08-16T12:01:15;10.10;;;8.38;;
63943;SDS011;50121;51.218;7.664;2022-08-16T12:03:43;7.63;;;7.03;;
63943;SDS011;50121;51.218;7.664;2022-08-16T12:06:13;7.93;;;7.22;;
63943;SDS011;50121;51.218;7.664;2022-08-16T12:08:42;9.05;;;8.30;;
63943;SDS011;50121;51.218;7.664;2022-08-16T12:11:11;8.27;;;7.75;;
63943;SDS011;50121;51.218;7.664;2022-08-16T12:13:39;8.38;;;7.55;;
63943;SDS011;50121;51.218;7.664;2022-08-16T12:16:08;9.30;;;7.70;;
63943;SDS011;50121;51.218;7.664;2022-08-16T12:18:36;8.48;;;7.68;;
63943;SDS011;50121;51.218;7.664;2022-08-16T12:21:11;8.18;;;7.55;;
63943;SDS011;50121;51.218;7.664;2022-08-16T12:23:39;8.88;;;8.07;;
63943;SDS011;50121;51.218;7.664;2022-08-16T12:26:07;9.07;;;8.27;;
63943;SDS011;50121;51.218;7.664;2022-08-16T12:28:36;9.25;;;8.40;;
63943;SDS011;50121;51.218;7.664;2022-08-16T12:31:04;11.25;;;10.15;;
63943;SDS011;50121;51.218;7.664;2022-08-16T12:33:31;12.52;;;10.88;;
63943;SDS011;50121;51.218;7.664;2022-08-16T12:35:59;8.40;;;7.60;;
63943;SDS011;50121;51.218;7.664;2022-08-16T12:38:27;10.23;;;9.07;;
63943;SDS011;50121;51.218;7.664;2022-08-16T12:40:56;9.68;;;8.88;;
63943;SDS011;50121;51.218;7.664;2022-08-16T12:43:23;12.52;;;9.60;;
63943;SDS011;50121;51.218;7.664;2022-08-16T12:45:52;8.68;;;8.00;;
63943;SDS011;50121;51.218;7.664;2022-08-16T12:48:22;9.57;;;8.60;;
63943;SDS011;50121;51.218;7.664;2022-08-16T12:51:11;8.65;;;7.95;;
63943;SDS011;50121;51.218;7.664;2022-08-16T12:53:39;11.75;;;8.23;;
63943;SDS011;50121;51.218;7.664;2022-08-16T12:56:08;10.00;;;9.20;;
63943;SDS011;50121;51.218;7.664;2022-08-16T12:58:37;10.57;;;9.57;;
63943;SDS011;50121;51.218;7.664;2022-08-16T13:01:07;9.55;;;8.63;;
63943;SDS011;50121;51.218;7.664;2022-08-16T13:03:35;9.75;;;9.05;;
63943;SDS011;50121;51.218;7.664;2022-08-16T13:06:05;10.60;;;9.70;;
63943;SDS011;50121;51.218;7.664;2022-08-16T13:08:33;12.70;;;10.13;;
63943;SDS011;50121;51.218;7.664;2022-08-16T13:11:01;10.32;;;9.50;;
63943;SDS011;50121;51.218;7.664;2022-08-16T13:13:30;10.13;;;9.13;;
63943;SDS011;50121;51.218;7.664;2022-08-16T13:16:00;9.70;;;8.80;;
63943;SDS011;50121;51.218;7.664;2022-08-16T13:18:31;9.38;;;8.48;;
63943;SDS011;50121;51.218;7.664;2022-08-16T13:21:01;8.32;;;7.60;;
63943;SDS011;50121;51.218;7.664;2022-08-16T13:23:29;9.98;;;8.32;;
63943;SDS011;50121;51.218;7.664;2022-08-16T13:25:57;9.77;;;8.82;;
63943;SDS011;50121;51.218;7.664;2022-08-16T13:28:25;9.93;;;9.23;;
63943;SDS011;50121;51.218;7.664;2022-08-16T13:30:56;10.05;;;9.20;;
63943;SDS011;50121;51.218;7.664;2022-08-16T13:33:25;9.68;;;8.73;;
63943;SDS011;50121;51.218;7.664;2022-08-16T13:35:57;9.70;;;8.93;;
63943;SDS011;50121;51.218;7.664;2022-08-16T13:38:28;11.95;;;10.95;;
63943;SDS011;50121;51.218;7.664;2022-08-16T13:40:58;11.10;;;10.23;;
63943;SDS011;50121;51.218;7.664;2022-08-16T13:43:28;10.65;;;9.90;;
63943;SDS011;50121;51.218;7.664;2022-08-16T13:45:59;12.73;;;11.80;;
63943;SDS011;50121;51.218;7.664;2022-08-16T13:48:28;10.43;;;9.60;;
63943;SDS011;50121;51.218;7.664;2022-08-16T13:50:56;11.20;;;10.20;;
63943;SDS011;50121;51.218;7.664;2022-08-16T13:53:26;11.30;;;10.45;;
63943;SDS011;50121;51.218;7.664;2022-08-16T13:55:54;9.57;;;8.68;;
63943;SDS011;50121;51.218;7.664;2022-08-16T13:58:22;9.13;;;8.43;;
63943;SDS011;50121;51.218;7.664;2022-08-16T14:00:52;10.85;;;9.95;;
63943;SDS011;50121;51.218;7.664;2022-08-16T14:03:19;9.50;;;8.70;;
63943;SDS011;50121;51.218;7.664;2022-08-16T14:05:47;8.80;;;8.20;;
63943;SDS011;50121;51.218;7.664;2022-08-16T14:08:14;10.40;;;9.63;;
63943;SDS011;50121;51.218;7.664;2022-08-16T14:10:42;10.10;;;9.32;;
63943;SDS011;50121;51.218;7.664;2022-08-16T14:13:10;9.20;;;8.38;;
63943;SDS011;50121;51.218;7.664;2022-08-16T14:15:37;10.10;;;9.20;;
63943;SDS011;50121;51.218;7.664;2022-08-16T14:18:05;9.50;;;8.73;;
63943;SDS011;50121;51.218;7.664;2022-08-16T14:20:33;9.30;;;8.60;;
63943;SDS011;50121;51.218;7.664;2022-08-16T14:23:03;9.10;;;8.35;;
63943;SDS011;50121;51.218;7.664;2022-08-16T14:25:31;8.65;;;8.05;;
63943;SDS011;50121;51.218;7.664;2022-08-16T14:27:59;9.65;;;8.75;;
63943;SDS011;50121;51.218;7.664;2022-08-16T14:30:27;10.65;;;9.68;;
63943;SDS011;50121;51.218;7.664;2022-08-16T14:32:55;10.45;;;9.70;;
63943;SDS011;50121;51.218;7.664;2022-08-16T14:35:25;10.75;;;9.95;;
63943;SDS011;50121;51.218;7.664;2022-08-16T14:38:00;10.70;;;9.90;;
63943;SDS011;50121;51.218;7.664;2022-08-16T14:40:43;10.70;;;9.88;;
63943;SDS011;50121;51.218;7.664;2022-08-16T14:43:12;9.50;;;8.70;;
63943;SDS011;50121;51.218;7.664;2022-08-16T14:45:40;8.90;;;8.20;;
63943;SDS011;50121;51.218;7.664;2022-08-16T14:48:08;9.93;;;9.13;;
63943;SDS011;50121;51.218;7.664;2022-08-16T14:50:35;9.85;;;9.02;;
63943;SDS011;50121;51.218;7.664;2022-08-16T14:53:04;9.93;;;9.20;;
63943;SDS011;50121;51.218;7.664;2022-08-16T14:55:34;10.95;;;9.98;;
63943;SDS011;50121;51.218;7.664;2022-08-16T14:58:02;12.18;;;10.98;;
63943;SDS011;50121;51.218;7.664;2022-08-16T15:00:30;11.52;;;10.63;;
63943;SDS011;50121;51.218;7.664;2022-08-16T15:02:59;11.77;;;10.80;;
63943;SDS011;50121;51.218;7.664;2022-08-16T15:05:27;12.05;;;10.95;;
63943;SDS011;50121;51.218;7.664;2022-08-16T15:07:55;10.23;;;9.38;;
63943;SDS011;50121;51.218;7.664;2022-08-16T15:10:23;10.88;;;10.15;;
63943;SDS011;50121;51.218;7.664;2022-08-16T15:12:51;11.43;;;10.52;;